createdAt,value
2019-04-26T00:01:50.876Z,97476.72
2019-04-26T00:04:23.289Z,97459.98
2019-04-26T00:06:55.343Z,97446.29
2019-04-26T00:09:35.707Z,97442.11
2019-04-26T00:12:27.268Z,97442.91
2019-04-26T00:15:34.547Z,97467.38
2019-04-26T00:18:06.875Z,97477.66
2019-04-26T00:20:38.854Z,97469.64
2019-04-26T00:23:11.856Z,97472.02
2019-04-26T00:25:44.318Z,97468.62
2019-04-26T00:28:17.000Z,97463.86
2019-04-26T00:30:48.993Z,97461.89
2019-04-26T00:33:21.446Z,97462.22
2019-04-26T00:35:53.551Z,97461.30
2019-04-26T00:38:25.478Z,97457.84
2019-04-26T00:40:57.950Z,97474.27
2019-04-26T00:43:29.885Z,97480.58
2019-04-26T00:46:03.316Z,97495.48
2019-04-26T00:48:35.558Z,97487.30
2019-04-26T00:51:08.265Z,97467.28
2019-04-26T00:53:40.788Z,97460.97
2019-04-26T00:56:14.513Z,97463.61
2019-04-26T00:58:46.804Z,97474.67
2019-04-26T01:01:20.762Z,97475.41
2019-04-26T01:03:52.836Z,97486.28
2019-04-26T01:06:27.770Z,97468.55
2019-04-26T01:08:59.714Z,97451.54
2019-04-26T01:11:31.692Z,97467.39
2019-04-26T01:14:03.955Z,97480.13
2019-04-26T01:16:36.009Z,97483.39
2019-04-26T01:19:09.986Z,97496.31
2019-04-26T01:21:47.579Z,97502.13
2019-04-26T01:24:21.233Z,97499.59
2019-04-26T01:26:55.016Z,97498.74
2019-04-26T01:29:28.009Z,97510.30
2019-04-26T01:32:07.524Z,97510.97
2019-04-26T01:34:40.985Z,97501.30
2019-04-26T01:37:13.151Z,97485.29
2019-04-26T01:39:50.489Z,97487.49
2019-04-26T01:42:42.064Z,97490.68
2019-04-26T01:45:20.295Z,97504.58
2019-04-26T01:47:55.367Z,97504.52
2019-04-26T01:50:29.426Z,97503.00
2019-04-26T01:53:02.686Z,97491.67
2019-04-26T01:55:34.686Z,97496.00
2019-04-26T01:58:06.896Z,97509.09
2019-04-26T02:00:47.564Z,97501.58
2019-04-26T02:03:23.916Z,97497.19
2019-04-26T02:05:56.025Z,97491.67
2019-04-26T02:08:28.286Z,97495.14
2019-04-26T02:11:00.415Z,97505.92
2019-04-26T02:13:33.099Z,97509.76
2019-04-26T02:16:05.124Z,97508.84
2019-04-26T02:18:37.156Z,97525.42
2019-04-26T02:21:20.673Z,97533.31
2019-04-26T02:24:12.230Z,97540.19
2019-04-26T02:26:45.672Z,97538.19
2019-04-26T02:29:21.020Z,97527.67
2019-04-26T02:31:56.619Z,97532.37
2019-04-26T02:34:31.168Z,97521.85
2019-04-26T02:37:04.395Z,97525.22
2019-04-26T02:39:38.298Z,97522.48
2019-04-26T02:42:38.065Z,97519.45
2019-04-26T02:45:53.790Z,97516.03
2019-04-26T02:48:55.568Z,97532.36
2019-04-26T02:51:34.146Z,97522.23
2019-04-26T02:54:18.381Z,97512.81
2019-04-26T02:56:52.137Z,97514.73
2019-04-26T02:59:40.598Z,97525.20
2019-04-26T03:02:23.450Z,97525.77
2019-04-26T03:04:57.702Z,97533.71
2019-04-26T03:07:59.598Z,97523.03
2019-04-26T03:10:43.453Z,97519.81
2019-04-26T03:13:26.735Z,97523.72
2019-04-26T03:16:27.729Z,97532.20
2019-04-26T03:19:23.151Z,97528.80
2019-04-26T03:22:20.219Z,97527.05
2019-04-26T03:25:20.233Z,97519.70
2019-04-26T03:28:32.675Z,97518.52
2019-04-26T03:31:46.001Z,97509.80
2019-04-26T03:34:42.295Z,97509.77
2019-04-26T03:37:40.499Z,97510.68
2019-04-26T03:40:44.988Z,97507.39
2019-04-26T03:43:47.085Z,97514.27
2019-04-26T03:46:31.248Z,97527.66
2019-04-26T03:49:54.596Z,97530.52
2019-04-26T03:53:12.832Z,97543.92
2019-04-26T03:56:24.587Z,97541.37
2019-04-26T03:59:27.153Z,97549.96
2019-04-26T04:02:10.740Z,97547.34
2019-04-26T04:04:57.920Z,97547.31
2019-04-26T04:07:39.178Z,97543.69
2019-04-26T04:10:12.140Z,97552.41
2019-04-26T04:13:38.276Z,97541.09
2019-04-26T04:16:54.320Z,97551.94
2019-04-26T04:20:21.261Z,97553.23
2019-04-26T04:23:19.625Z,97545.28
2019-04-26T04:25:52.822Z,97550.77
2019-04-26T04:28:53.873Z,97549.66
2019-04-26T04:31:30.851Z,97556.55
2019-04-26T04:34:16.073Z,97540.84
2019-04-26T04:36:51.374Z,97542.89
2019-04-26T04:39:56.691Z,97557.28
2019-04-26T04:42:43.548Z,97558.86
2019-04-26T04:45:53.699Z,97562.06
2019-04-26T04:48:43.316Z,97568.97
2019-04-26T04:51:32.246Z,97559.02
2019-04-26T04:54:17.294Z,97565.55
2019-04-26T04:57:06.433Z,97565.25
2019-04-26T05:00:45.056Z,97584.86
2019-04-26T05:03:27.821Z,97586.08
2019-04-26T05:06:18.611Z,97610.19
2019-04-26T05:09:07.449Z,97613.05
2019-04-26T05:11:48.315Z,97610.59
2019-04-26T05:15:02.858Z,97613.00
2019-04-26T05:18:07.530Z,97611.73
2019-04-26T05:20:46.998Z,97605.41
2019-04-26T05:24:13.975Z,97617.02
2019-04-26T05:27:38.832Z,97628.84
2019-04-26T05:31:16.259Z,97630.23
2019-04-26T05:34:11.840Z,97632.56
2019-04-26T05:36:53.131Z,97644.84
2019-04-26T05:40:04.611Z,97648.09
2019-04-26T05:43:28.757Z,97656.55
2019-04-26T05:46:41.444Z,97661.73
2019-04-26T05:49:59.975Z,97675.44
2019-04-26T05:53:06.670Z,97675.70
2019-04-26T05:56:29.256Z,97672.73
2019-04-26T05:59:07.632Z,97676.73
2019-04-26T06:02:27.422Z,97666.87
2019-04-26T06:05:23.545Z,97669.98
2019-04-26T06:08:55.330Z,97667.16
2019-04-26T06:11:38.793Z,97668.34
2019-04-26T06:14:50.506Z,97673.75
2019-04-26T06:17:55.895Z,97675.32
2019-04-26T06:21:09.408Z,97685.94
2019-04-26T06:24:19.706Z,97702.34
2019-04-26T06:27:13.690Z,97702.98
2019-04-26T06:30:14.290Z,97698.95
2019-04-26T06:33:04.763Z,97699.63
2019-04-26T06:35:39.364Z,97701.97
2019-04-26T06:38:55.708Z,97704.20
2019-04-26T06:42:14.432Z,97718.25
2019-04-26T06:45:17.202Z,97713.83
2019-04-26T06:47:58.807Z,97718.42
2019-04-26T06:50:38.288Z,97708.55
2019-04-26T06:53:21.938Z,97711.78
2019-04-26T06:56:07.797Z,97707.63
2019-04-26T06:59:19.707Z,97705.21
2019-04-26T07:02:08.221Z,97719.70
2019-04-26T07:05:11.933Z,97711.17
2019-04-26T07:08:18.093Z,97713.83
2019-04-26T07:11:45.968Z,97719.02
2019-04-26T07:14:41.188Z,97720.28
2019-04-26T07:17:17.336Z,97721.22
2019-04-26T07:20:22.359Z,97714.08
2019-04-26T07:23:42.555Z,97713.49
2019-04-26T07:26:38.798Z,97725.88
2019-04-26T07:29:28.402Z,97730.26
2019-04-26T07:32:39.835Z,97737.86
2019-04-26T07:35:33.948Z,97738.09
2019-04-26T07:39:10.380Z,97750.75
2019-04-26T07:42:11.716Z,97757.48
2019-04-26T07:45:32.548Z,97756.14
2019-04-26T07:48:58.301Z,97767.50
2019-04-26T07:52:15.744Z,97779.11
2019-04-26T07:55:12.890Z,97774.39
2019-04-26T07:58:21.698Z,97803.66
2019-04-26T08:01:04.099Z,97805.66
2019-04-26T08:03:49.019Z,97810.67
2019-04-26T08:06:41.191Z,97807.19
2019-04-26T08:09:25.604Z,97803.41
2019-04-26T08:11:52.261Z,97791.27
2019-04-26T08:14:50.693Z,97803.52
2019-04-26T08:17:46.182Z,97799.65
2019-04-26T08:20:40.168Z,97801.48
2019-04-26T08:23:37.555Z,97815.02
2019-04-26T08:25:51.941Z,97821.26
2019-04-26T08:28:25.825Z,97835.03
2019-04-26T08:30:59.239Z,97842.80
2019-04-26T08:33:41.029Z,97840.15
2019-04-26T08:36:12.699Z,97834.05
2019-04-26T08:38:45.225Z,97830.56
2019-04-26T08:41:18.806Z,97826.22
2019-04-26T08:44:09.843Z,97840.14
2019-04-26T08:47:02.441Z,97843.35
2019-04-26T08:49:56.767Z,97850.14
2019-04-26T08:52:31.181Z,97843.47
2019-04-26T08:55:04.750Z,97851.48
2019-04-26T08:57:39.593Z,97858.33
2019-04-26T09:00:26.081Z,97869.98
2019-04-26T09:03:11.614Z,97869.75
2019-04-26T09:06:03.000Z,97867.41
2019-04-26T09:08:39.355Z,97865.05
2019-04-26T09:11:23.673Z,97876.80
2019-04-26T09:13:49.899Z,97882.05
2019-04-26T09:16:21.392Z,97877.91
2019-04-26T09:18:57.280Z,97892.01
2019-04-26T09:21:52.130Z,97892.51
2019-04-26T09:24:38.428Z,97888.23
2019-04-26T09:27:44.970Z,97898.94
2019-04-26T09:30:33.635Z,97913.17
2019-04-26T09:33:14.862Z,97913.84
2019-04-26T09:35:46.892Z,97912.14
2019-04-26T09:38:18.939Z,97902.12
2019-04-26T09:40:52.569Z,97898.83
2019-04-26T09:43:47.966Z,97910.17
2019-04-26T09:46:39.516Z,97911.81
2019-04-26T09:49:25.912Z,97913.20
2019-04-26T09:51:57.970Z,97913.28
2019-04-26T09:54:29.982Z,97920.02
2019-04-26T09:57:02.122Z,97920.06
2019-04-26T09:59:36.251Z,97922.38
2019-04-26T10:02:09.118Z,97923.13
2019-04-26T10:04:41.143Z,97930.75
2019-04-26T10:07:13.101Z,97937.61
2019-04-26T10:09:45.135Z,97933.90
2019-04-26T10:12:26.989Z,97924.95
2019-04-26T10:15:26.749Z,97914.33
2019-04-26T10:17:58.696Z,97912.10
2019-04-26T10:20:30.699Z,97911.04
2019-04-26T10:23:02.826Z,97910.94
2019-04-26T10:25:34.809Z,97897.85
2019-04-26T10:28:06.837Z,97893.38
2019-04-26T10:30:42.415Z,97891.16
2019-04-26T10:33:12.820Z,97880.16
2019-04-26T10:35:44.868Z,97875.77
2019-04-26T10:38:19.391Z,97878.19
2019-04-26T10:40:50.742Z,97882.94
2019-04-26T10:43:22.761Z,97885.94
2019-04-26T10:45:55.105Z,97899.27
2019-04-26T10:48:27.143Z,97899.47
2019-04-26T10:50:59.069Z,97899.20
2019-04-26T10:53:50.489Z,97904.33
2019-04-26T10:56:48.325Z,97918.29
2019-04-26T10:59:32.801Z,97916.20
2019-04-26T11:02:06.377Z,97924.45
2019-04-26T11:04:41.464Z,97924.34
2019-04-26T11:07:12.278Z,97926.41
2019-04-26T11:09:44.243Z,97933.91
2019-04-26T11:12:16.325Z,97944.78
2019-04-26T11:14:48.368Z,97942.48
2019-04-26T11:17:20.356Z,97954.80
2019-04-26T11:19:52.398Z,97953.39
2019-04-26T11:22:29.411Z,97945.67
2019-04-26T11:24:58.562Z,97951.66
2019-04-26T11:27:30.508Z,97945.38
2019-04-26T11:30:12.924Z,97947.08
2019-04-26T11:32:38.165Z,97962.39
2019-04-26T11:35:10.429Z,97962.94
2019-04-26T11:37:42.426Z,97956.53
2019-04-26T11:40:15.680Z,97947.77
2019-04-26T11:42:47.866Z,97945.20
2019-04-26T11:45:19.864Z,97955.45
2019-04-26T11:47:56.313Z,97957.48
2019-04-26T11:50:25.785Z,97957.54
2019-04-26T11:52:57.748Z,97954.88
2019-04-26T11:55:31.416Z,97948.41
2019-04-26T11:58:03.540Z,97955.03
2019-04-26T12:00:41.101Z,97959.47
2019-04-26T12:03:13.075Z,97964.23
2019-04-26T12:06:04.915Z,97956.03
2019-04-26T12:08:48.554Z,97975.20
2019-04-26T12:11:26.230Z,97968.52
2019-04-26T12:13:55.340Z,97961.49
2019-04-26T12:16:28.455Z,97959.69
2019-04-26T12:19:00.448Z,97956.43
2019-04-26T12:21:34.154Z,97960.83
2019-04-26T12:24:06.463Z,97962.42
2019-04-26T12:26:43.063Z,97958.42
2019-04-26T12:29:14.748Z,97959.69
2019-04-26T12:31:46.357Z,97948.95
2019-04-26T12:34:19.128Z,97949.86
2019-04-26T12:36:51.249Z,97949.22
2019-04-26T12:39:23.208Z,97955.18
2019-04-26T12:41:55.221Z,97952.39
2019-04-26T12:44:36.458Z,97955.05
2019-04-26T12:47:14.626Z,97956.27
2019-04-26T12:49:46.605Z,97957.17
2019-04-26T12:52:21.548Z,97957.03
2019-04-26T12:54:52.560Z,97966.63
2019-04-26T12:57:24.606Z,97965.59
2019-04-26T12:59:57.539Z,97975.72
2019-04-26T13:02:30.740Z,97980.27
2019-04-26T13:05:03.015Z,97988.92
2019-04-26T13:07:35.109Z,97993.00
2019-04-26T13:10:26.824Z,97994.61
2019-04-26T13:13:24.290Z,97997.55
2019-04-26T13:16:21.718Z,98005.83
2019-04-26T13:18:52.897Z,98000.54
2019-04-26T13:21:24.937Z,98005.79
2019-04-26T13:24:00.181Z,98014.84
2019-04-26T13:26:34.888Z,98014.74
2019-04-26T13:29:04.854Z,98015.02
2019-04-26T13:31:36.929Z,98026.47
2019-04-26T13:34:08.953Z,98030.44
2019-04-26T13:36:40.925Z,98043.41
2019-04-26T13:39:13.558Z,98048.73
2019-04-26T13:41:46.976Z,98057.37
2019-04-26T13:44:39.354Z,98045.91
2019-04-26T13:47:30.183Z,98046.44
2019-04-26T13:50:11.200Z,98052.31
2019-04-26T13:52:43.287Z,98052.78
2019-04-26T13:55:15.342Z,98046.20
2019-04-26T13:57:47.351Z,98040.92
2019-04-26T14:00:23.139Z,98036.20
2019-04-26T14:02:55.110Z,98040.73
2019-04-26T14:05:27.168Z,98043.92
2019-04-26T14:07:59.190Z,98042.55
2019-04-26T14:10:31.210Z,98046.66
2019-04-26T14:13:03.215Z,98047.45
2019-04-26T14:15:35.313Z,98042.13
2019-04-26T14:18:07.303Z,98040.25
2019-04-26T14:20:39.327Z,98044.73
2019-04-26T14:23:39.974Z,98043.59
2019-04-26T14:26:18.862Z,98045.94
2019-04-26T14:28:54.418Z,98033.04
2019-04-26T14:31:24.744Z,98026.30
2019-04-26T14:33:56.779Z,98020.95
2019-04-26T14:36:28.792Z,98016.13
2019-04-26T14:39:06.149Z,98021.32
2019-04-26T14:41:34.769Z,98018.19
2019-04-26T14:44:15.350Z,98024.77
2019-04-26T14:46:48.671Z,98014.09
2019-04-26T14:49:14.632Z,98012.42
2019-04-26T14:51:46.990Z,97995.64
2019-04-26T14:54:20.513Z,97994.19
2019-04-26T14:56:52.687Z,98017.55
2019-04-26T14:59:44.411Z,98027.08
2019-04-26T15:02:35.363Z,98025.52
2019-04-26T15:05:27.129Z,98027.52
2019-04-26T15:07:59.242Z,98038.20
2019-04-26T15:10:43.916Z,98039.27
2019-04-26T15:13:17.336Z,98037.90
2019-04-26T15:15:42.686Z,98042.02
2019-04-26T15:18:15.894Z,98055.63
2019-04-26T15:20:47.911Z,98055.09
2019-04-26T15:23:23.861Z,98061.73
2019-04-26T15:25:53.815Z,98057.15
2019-04-26T15:28:25.840Z,98066.78
2019-04-26T15:30:57.843Z,98060.40
2019-04-26T15:33:29.875Z,98054.73
2019-04-26T15:36:02.353Z,98058.23
2019-04-26T15:38:41.537Z,98057.44
2019-04-26T15:41:35.720Z,98052.98
2019-04-26T15:44:28.241Z,98058.30
2019-04-26T15:47:23.625Z,98059.36
2019-04-26T15:50:05.566Z,98052.98
2019-04-26T15:52:35.543Z,98055.06
2019-04-26T15:55:07.851Z,98045.64
2019-04-26T15:57:39.863Z,98044.66
2019-04-26T16:00:12.561Z,98035.70
2019-04-26T16:02:44.688Z,98031.14
2019-04-26T16:05:16.895Z,98012.06
2019-04-26T16:07:48.913Z,98019.19
2019-04-26T16:10:25.538Z,98020.78
2019-04-26T16:12:56.239Z,98022.87
2019-04-26T16:15:28.388Z,98032.13
2019-04-26T16:18:00.374Z,98032.13
2019-04-26T16:20:37.548Z,98024.94
2019-04-26T16:23:07.411Z,98024.94
2019-04-26T16:25:39.584Z,98038.56
2019-04-26T16:28:30.876Z,98035.19
2019-04-26T16:31:14.727Z,98035.19
2019-04-26T16:33:47.865Z,98035.19
2019-04-26T16:36:19.861Z,98043.04
2019-04-26T16:38:56.126Z,98053.77
2019-04-26T16:41:27.329Z,98042.72
2019-04-26T16:43:59.618Z,98042.72
2019-04-26T16:46:33.266Z,98044.30
2019-04-26T16:51:39.415Z,98060.05
2019-04-26T16:54:20.914Z,98054.83
2019-04-26T16:56:45.335Z,98049.42
2019-04-26T16:59:22.687Z,98051.42
2019-04-26T17:01:53.224Z,98050.06
2019-04-26T17:04:31.979Z,98048.05
2019-04-26T17:09:37.394Z,98055.12
2019-04-26T17:09:41.878Z,98058.47
2019-04-26T17:09:54.872Z,98059.88
2019-04-26T17:12:10.659Z,98062.38
2019-04-26T17:14:47.797Z,98056.86
2019-04-26T17:17:16.062Z,98051.50
2019-04-26T17:19:48.087Z,98056.95
2019-04-26T17:22:44.559Z,98061.00
2019-04-26T17:25:24.419Z,98063.33
2019-04-26T17:27:56.007Z,98069.77
2019-04-26T17:30:28.042Z,98072.39
2019-04-26T17:33:00.005Z,98078.31
2019-04-26T17:35:32.741Z,98072.69
2019-04-26T17:38:05.167Z,98071.95
2019-04-26T17:40:38.095Z,98076.70
2019-04-26T17:43:11.437Z,98079.95
2019-04-26T17:45:44.332Z,98084.23
2019-04-26T17:48:16.338Z,98086.78
2019-04-26T17:50:48.379Z,98088.40
2019-04-26T17:53:30.776Z,98087.83
2019-04-26T17:55:55.139Z,98083.58
2019-04-26T17:58:33.607Z,98077.36
2019-04-26T18:01:03.714Z,98080.22
2019-04-26T18:03:35.415Z,98085.46
2019-04-26T18:06:09.583Z,98094.22
2019-04-26T18:08:51.204Z,98087.55
2019-04-26T18:11:19.676Z,98093.47
2019-04-26T18:13:51.119Z,98095.22
2019-04-26T18:16:29.012Z,98097.84
2019-04-26T18:19:15.616Z,98091.27
2019-04-26T18:22:07.260Z,98099.53
2019-04-26T18:24:39.242Z,98103.13
2019-04-26T18:27:11.224Z,98098.61
2019-04-26T18:29:43.700Z,98105.17
2019-04-26T18:32:15.742Z,98100.94
2019-04-26T18:34:47.794Z,98100.41
2019-04-26T18:37:19.826Z,98101.59
2019-04-26T18:39:53.369Z,98105.97
2019-04-26T18:42:27.094Z,98106.20
2019-04-26T18:44:59.142Z,98112.88
2019-04-26T18:47:36.031Z,98109.96
2019-04-26T18:50:08.410Z,98112.20
2019-04-26T18:52:56.535Z,98115.45
2019-04-26T18:55:30.191Z,98115.73
2019-04-26T18:58:05.363Z,98117.34
2019-04-26T19:00:38.050Z,98107.15
2019-04-26T19:03:10.084Z,98110.58
2019-04-26T19:05:43.151Z,98109.01
2019-04-26T19:08:15.325Z,98102.55
2019-04-26T19:10:58.311Z,98107.36
2019-04-26T19:13:38.136Z,98106.48
2019-04-26T19:16:28.089Z,98103.95
2019-04-26T19:19:07.206Z,98092.12
2019-04-26T19:21:52.848Z,98097.52
2019-04-26T19:24:24.547Z,98103.36
2019-04-26T19:26:56.673Z,98099.93
2019-04-26T19:29:33.645Z,98099.50
2019-04-26T19:32:04.361Z,98097.43
2019-04-26T19:34:36.586Z,98088.48
2019-04-26T19:37:08.669Z,98090.75
2019-04-26T19:39:42.595Z,98092.91
2019-04-26T19:42:14.627Z,98094.69
2019-04-26T19:44:49.425Z,98090.86
2019-04-26T19:47:39.491Z,98096.95
2019-04-26T19:50:42.324Z,98091.52
2019-04-26T19:53:34.773Z,98099.42
2019-04-26T19:56:27.336Z,98097.83
2019-04-26T19:58:57.640Z,98101.77
2019-04-26T20:01:29.583Z,98100.56
2019-04-26T20:04:02.449Z,98106.77
2019-04-26T20:06:34.624Z,98107.28
2019-04-26T20:09:07.044Z,98106.30
2019-04-26T20:11:39.057Z,98098.23
2019-04-26T20:14:12.394Z,98101.38
2019-04-26T20:16:44.578Z,98100.40
2019-04-26T20:19:18.004Z,98101.78
2019-04-26T20:21:51.196Z,98106.98
2019-04-26T20:24:24.093Z,98109.06
2019-04-26T20:26:56.057Z,98117.01
2019-04-26T20:29:28.060Z,98120.84
2019-04-26T20:32:07.020Z,98120.55
2019-04-26T20:34:41.286Z,98123.49
2019-04-26T20:37:16.107Z,98118.89
2019-04-26T20:39:47.255Z,98120.27
2019-04-26T20:42:19.202Z,98122.62
2019-04-26T20:44:53.627Z,98126.17
2019-04-26T20:47:25.387Z,98128.22
2019-04-26T20:50:01.287Z,98125.47
2019-04-26T20:52:32.138Z,98132.84
2019-04-26T20:55:04.415Z,98136.95
2019-04-26T20:57:36.516Z,98142.28
2019-04-26T21:00:08.725Z,98144.44
2019-04-26T21:02:40.711Z,98143.64
2019-04-26T21:05:14.662Z,98147.16
2019-04-26T21:07:50.156Z,98143.73
2019-04-26T21:10:25.049Z,98146.96
2019-04-26T21:12:55.093Z,98157.37
2019-04-26T21:15:27.239Z,98161.01
2019-04-26T21:18:02.726Z,98154.80
2019-04-26T21:20:36.501Z,98156.87
2019-04-26T21:23:08.726Z,98156.38
2019-04-26T21:25:50.257Z,98158.38
2019-04-26T21:28:42.775Z,98158.45
2019-04-26T21:31:26.878Z,98153.83
2019-04-26T21:34:07.856Z,98153.95
2019-04-26T21:36:57.944Z,98155.31
2019-04-26T21:39:49.619Z,98155.70
2019-04-26T21:42:25.509Z,98154.94
2019-04-26T21:44:55.553Z,98159.64
2019-04-26T21:47:31.828Z,98165.14
2019-04-26T21:50:01.556Z,98161.52
2019-04-26T21:52:34.333Z,98173.59
2019-04-26T21:55:06.739Z,98172.52
2019-04-26T21:57:38.801Z,98175.47
2019-04-26T22:00:29.428Z,98175.75
2019-04-26T22:03:01.449Z,98179.06
2019-04-26T22:05:35.034Z,98173.96
2019-04-26T22:08:07.437Z,98179.47
2019-04-26T22:10:44.650Z,98175.23
2019-04-26T22:13:23.661Z,98173.28
2019-04-26T22:16:30.587Z,98169.86
2019-04-26T22:19:10.205Z,98173.28
2019-04-26T22:21:53.416Z,98174.56
2019-04-26T22:24:36.265Z,98171.22
2019-04-26T22:27:08.274Z,98171.14
2019-04-26T22:29:40.268Z,98175.25
2019-04-26T22:32:15.911Z,98171.81
2019-04-26T22:34:46.425Z,98168.06
2019-04-26T22:37:29.151Z,98161.30
2019-04-26T22:39:54.230Z,98167.08
2019-04-26T22:42:26.658Z,98167.30
2019-04-26T22:45:21.048Z,98169.86
2019-04-26T22:48:03.500Z,98163.96
2019-04-26T22:50:35.546Z,98162.69
2019-04-26T22:53:07.526Z,98164.92
2019-04-26T22:55:39.513Z,98163.25
2019-04-26T22:58:13.298Z,98159.94
2019-04-26T23:00:45.915Z,98161.48
2019-04-26T23:03:18.008Z,98170.22
2019-04-26T23:05:50.067Z,98163.25
2019-04-26T23:08:23.636Z,98165.20
2019-04-26T23:10:57.657Z,98166.76
2019-04-26T23:13:49.212Z,98175.88
2019-04-26T23:16:40.358Z,98177.84
2019-04-26T23:19:31.097Z,98175.48
2019-04-26T23:22:04.131Z,98177.36
2019-04-26T23:24:36.199Z,98182.55
2019-04-26T23:27:08.326Z,98182.94
2019-04-26T23:29:40.375Z,98183.22
2019-04-26T23:32:18.571Z,98175.83
2019-04-26T23:34:46.420Z,98179.98
2019-04-26T23:37:19.306Z,98177.04
2019-04-26T23:39:53.621Z,98180.98
2019-04-26T23:42:25.813Z,98177.36
2019-04-26T23:44:57.784Z,98172.66
2019-04-26T23:47:31.945Z,98172.27
2019-04-26T23:50:04.151Z,98170.98
2019-04-26T23:52:36.133Z,98169.91
2019-04-26T23:55:09.232Z,98176.77
2019-04-26T23:57:43.362Z,98172.45
